Time;durP1;ratioP1;P1;durP2;ratioP2;P2;SDS_P1;SDS_P2;PMS_P1;PMS_P2;Temp;Humidity;BMP_temperature;BMP_pressure;BME280_temperature;BME280_humidity;BME280_pressure;Samples;Min_cycle;Max_cycle;Signal;HPM_P1;HPM_P2
2023/10/14 00:00:26;;;;;;;;;;;;;;;18.90;69.67;99667.84;4220060;28;20027;-71
2023/10/14 00:02:28;;;;;;;;;;;;;;;18.89;69.03;99668.94;4218938;28;20010;-72
2023/10/14 00:04:30;;;;;;;;;;;;;;;18.88;69.06;99679.03;4219536;28;20011;-71
2023/10/14 00:06:34;;;;;;;;;;;;;;;18.89;69.80;99675.25;4219714;28;19978;-72
2023/10/14 00:08:47;;;;;;;;;;;;;;;18.89;69.07;99677.16;4219896;28;20011;-72
2023/10/14 00:10:49;;;;;;;;;;;;;;;18.89;70.10;99680.72;4219338;28;20018;-73
2023/10/14 00:12:53;;;;;;;;;;;;;;;18.89;69.84;99677.16;4219641;28;20501;-72
2023/10/14 00:14:56;;;;;;;;;;;;;;;18.88;69.42;99662.63;4219833;28;20030;-72
2023/10/14 00:16:59;;;;;;;;;;;;;;;18.86;69.21;99659.34;4218246;28;20051;-73
2023/10/14 00:19:04;;;;;;;;;;;;;;;18.85;69.15;99657.69;4220044;28;20032;-73
2023/10/14 00:21:05;;;;;;;;;;;;;;;18.85;69.54;99673.28;4219520;28;20362;-72
2023/10/14 00:23:07;;;;;;;;;;;;;;;18.85;69.50;99662.34;4221164;28;20018;-71
2023/10/14 00:25:19;;;;;;;;;;;;;;;18.85;69.90;99671.34;4223846;28;20031;-72
2023/10/14 00:27:23;;;;;;;;;;;;;;;18.86;70.58;99674.94;4222399;28;19924;-72
2023/10/14 00:29:29;;;;;;;;;;;;;;;18.84;70.54;99674.31;4221866;28;20606;-72
2023/10/14 00:31:31;;;;;;;;;;;;;;;18.83;70.89;99678.97;4222015;28;20031;-72
2023/10/14 00:33:35;;;;;;;;;;;;;;;18.82;71.26;99663.63;4221251;28;20007;-72
2023/10/14 00:35:41;;;;;;;;;;;;;;;18.80;71.03;99667.72;4222830;28;20027;-72
2023/10/14 00:37:43;;;;;;;;;;;;;;;18.81;71.57;99644.75;4222516;28;20102;-72
2023/10/14 00:39:46;;;;;;;;;;;;;;;18.80;71.44;99641.19;4222971;28;20439;-72
2023/10/14 00:41:58;;;;;;;;;;;;;;;18.81;72.15;99659.25;4221698;28;20039;-72
2023/10/14 00:44:01;;;;;;;;;;;;;;;18.80;71.76;99660.34;4237658;27;20046;-72
2023/10/14 00:46:04;;;;;;;;;;;;;;;18.81;72.94;99659.25;4236579;27;20395;-72
2023/10/14 00:48:07;;;;;;;;;;;;;;;18.79;73.92;99647.72;4223057;28;20034;-71
2023/10/14 00:50:22;;;;;;;;;;;;;;;18.75;74.90;99637.59;4222709;28;20006;-72
2023/10/14 00:52:29;;;;;;;;;;;;;;;18.74;75.08;99623.06;4223164;28;20019;-72
2023/10/14 00:54:51;;;;;;;;;;;;;;;18.72;75.26;99623.34;4222618;28;20019;-73
2023/10/14 00:57:00;;;;;;;;;;;;;;;18.70;75.09;99614.56;4205554;28;20027;-73
2023/10/14 00:59:04;;;;;;;;;;;;;;;18.66;74.89;99623.53;4222232;28;20113;-72
2023/10/14 01:01:07;;;;;;;;;;;;;;;18.63;74.86;99621.31;4236860;27;20523;-72
2023/10/14 01:03:10;;;;;;;;;;;;;;;18.62;74.69;99609.56;4236944;27;20501;-73
2023/10/14 01:05:18;;;;;;;;;;;;;;;18.63;75.02;99605.75;4223286;28;20454;-72
2023/10/14 01:07:21;;;;;;;;;;;;;;;18.61;74.61;99615.31;4223432;28;20018;-72
2023/10/14 01:09:31;;;;;;;;;;;;;;;18.59;75.52;99609.25;4222072;28;19928;-72
2023/10/14 01:11:35;;;;;;;;;;;;;;;18.55;75.11;99615.22;4222381;28;20022;-72
2023/10/14 01:13:37;;;;;;;;;;;;;;;18.57;75.29;99603.22;4237138;27;20389;-72
2023/10/14 01:15:44;;;;;;;;;;;;;;;18.57;75.20;99603.22;4237336;27;20018;-72
2023/10/14 01:17:46;;;;;;;;;;;;;;;18.55;75.26;99608.94;4221446;28;20015;-71
2023/10/14 01:19:50;;;;;;;;;;;;;;;18.54;75.40;99590.88;4218599;28;20024;-71
2023/10/14 01:21:52;;;;;;;;;;;;;;;18.51;75.68;99581.31;4236355;27;20030;-71
2023/10/14 01:23:59;;;;;;;;;;;;;;;18.53;75.51;99570.91;4223193;28;20346;-71
2023/10/14 01:26:04;;;;;;;;;;;;;;;18.52;75.63;99576.66;4221999;28;20018;-71
2023/10/14 01:28:11;;;;;;;;;;;;;;;18.52;75.85;99565.72;4219599;28;20015;-71
2023/10/14 01:30:14;;;;;;;;;;;;;;;18.53;75.91;99540.84;4220123;28;20282;-71
2023/10/14 01:32:42;;;;;;;;;;;;;;;18.56;75.56;99542.25;4222494;28;20026;-71
2023/10/14 01:34:44;;;;;;;;;;;;;;;18.56;75.72;99542.25;4220008;28;20042;-72
2023/10/14 01:36:46;;;;;;;;;;;;;;;18.54;75.99;99526.09;4221587;28;20022;-72
2023/10/14 01:38:57;;;;;;;;;;;;;;;18.52;76.24;99522.78;4219299;28;20481;-71
2023/10/14 01:41:04;;;;;;;;;;;;;;;18.50;76.33;99521.41;4219601;28;20339;-72
2023/10/14 01:43:05;;;;;;;;;;;;;;;18.50;76.40;99496.81;4221197;28;20018;-72
2023/10/14 01:45:08;;;;;;;;;;;;;;;18.49;76.92;99495.16;4220365;28;20023;-73
2023/10/14 01:47:10;;;;;;;;;;;;;;;18.51;76.82;99498.44;4221603;28;20046;-71
2023/10/14 01:49:18;;;;;;;;;;;;;;;18.51;76.80;99495.69;4219887;28;20516;-72
2023/10/14 01:51:21;;;;;;;;;;;;;;;18.51;76.87;99509.38;4220800;28;19931;-72
2023/10/14 01:53:24;;;;;;;;;;;;;;;18.50;77.37;99524.16;4221948;28;20031;-72
2023/10/14 01:55:26;;;;;;;;;;;;;;;18.49;77.00;99504.16;4222557;28;20019;-72
2023/10/14 01:57:30;;;;;;;;;;;;;;;18.50;77.30;99496.81;4219268;28;20071;-72
2023/10/14 01:59:34;;;;;;;;;;;;;;;18.46;77.66;99491.00;4219552;28;20003;-72
2023/10/14 02:01:41;;;;;;;;;;;;;;;18.47;77.96;99483.66;4235791;27;20014;-71
2023/10/14 02:03:46;;;;;;;;;;;;;;;18.45;78.36;99483.91;4235937;27;20014;-71
2023/10/14 02:05:51;;;;;;;;;;;;;;;18.45;78.53;99472.13;4221249;28;20018;-72
2023/10/14 02:07:53;;;;;;;;;;;;;;;18.45;78.60;99467.50;4203533;28;20024;-72
2023/10/14 02:09:56;;;;;;;;;;;;;;;18.43;78.44;99455.19;4203662;28;20029;-72
2023/10/14 02:11:59;;;;;;;;;;;;;;;18.44;78.52;99443.97;4203080;28;19954;-72
2023/10/14 02:14:06;;;;;;;;;;;;;;;18.45;78.51;99434.72;4216687;28;20014;-72
2023/10/14 02:16:09;;;;;;;;;;;;;;;18.45;78.29;99442.06;4221442;28;20015;-71
2023/10/14 02:18:11;;;;;;;;;;;;;;;18.46;77.98;99425.41;4236236;27;20392;-72
2023/10/14 02:20:27;;;;;;;;;;;;;;;18.42;78.15;99429.75;4221732;28;20022;-71
2023/10/14 02:22:29;;;;;;;;;;;;;;;18.43;77.72;99425.09;4203131;28;20570;-72
2023/10/14 02:24:31;;;;;;;;;;;;;;;18.46;77.65;99438.25;4221510;28;20458;-73
2023/10/14 02:26:34;;;;;;;;;;;;;;;18.47;77.54;99431.72;4219852;28;20560;-71
2023/10/14 02:28:40;;;;;;;;;;;;;;;18.48;77.28;99425.13;4221880;28;20022;-71
2023/10/14 02:30:43;;;;;;;;;;;;;;;18.48;76.60;99439.66;4220833;28;20038;-72
2023/10/14 02:32:48;;;;;;;;;;;;;;;18.46;76.19;99432.78;4219002;28;20572;-72
2023/10/14 02:34:51;;;;;;;;;;;;;;;18.47;76.01;99435.25;4220999;28;20582;-72
2023/10/14 02:36:53;;;;;;;;;;;;;;;18.48;75.71;99428.72;4219716;28;20010;-71
2023/10/14 02:38:54;;;;;;;;;;;;;;;18.49;75.27;99435.00;4203037;28;20019;-72
2023/10/14 02:40:56;;;;;;;;;;;;;;;18.51;75.22;99430.94;4221042;28;20006;-71
2023/10/14 02:43:00;;;;;;;;;;;;;;;18.52;75.24;99435.28;4235738;27;20014;-72
2023/10/14 02:45:04;;;;;;;;;;;;;;;18.51;74.66;99433.66;4201753;28;20059;-72
2023/10/14 02:47:08;;;;;;;;;;;;;;;18.51;74.25;99436.41;4219409;28;19928;-72
2023/10/14 02:49:13;;;;;;;;;;;;;;;18.50;74.38;99423.81;4234969;27;20015;-71
2023/10/14 02:51:16;;;;;;;;;;;;;;;18.50;74.43;99412.88;4235695;27;20014;-73
2023/10/14 02:53:22;;;;;;;;;;;;;;;18.52;74.02;99423.53;4221424;28;20471;-72
2023/10/14 02:55:25;;;;;;;;;;;;;;;18.53;74.17;99415.09;4221189;28;20031;-72
2023/10/14 02:57:28;;;;;;;;;;;;;;;18.53;74.28;99409.59;4221063;28;20022;-73
2023/10/14 02:59:36;;;;;;;;;;;;;;;18.53;73.75;99411.53;4221190;28;20422;-73
2023/10/14 03:01:41;;;;;;;;;;;;;;;18.54;74.09;99426.81;4217602;28;20389;-73
2023/10/14 03:03:46;;;;;;;;;;;;;;;18.55;73.95;99423.84;4235317;27;20006;-72
2023/10/14 03:05:52;;;;;;;;;;;;;;;18.56;73.86;99421.94;4221782;28;20027;-72
2023/10/14 03:07:53;;;;;;;;;;;;;;;18.56;73.77;99413.75;4236178;27;20406;-73
2023/10/14 03:09:58;;;;;;;;;;;;;;;18.57;73.89;99411.81;4220268;28;19924;-72
2023/10/14 03:12:00;;;;;;;;;;;;;;;18.54;73.33;99410.44;4220535;28;20540;-73
2023/10/14 03:14:02;;;;;;;;;;;;;;;18.55;73.57;99407.44;4220054;28;20007;-73
2023/10/14 03:16:07;;;;;;;;;;;;;;;18.55;73.26;99414.81;4234917;27;20487;-72
2023/10/14 03:18:13;;;;;;;;;;;;;;;18.54;73.38;99404.97;4220042;28;20019;-72
2023/10/14 03:20:34;;;;;;;;;;;;;;;18.55;73.50;99403.88;4220608;28;20023;-73
2023/10/14 03:22:38;;;;;;;;;;;;;;;18.54;73.33;99410.44;4220773;28;20027;-72
2023/10/14 03:24:40;;;;;;;;;;;;;;;18.54;73.46;99405.81;4220125;28;20034;-73
2023/10/14 03:26:47;;;;;;;;;;;;;;;18.56;73.66;99400.06;4218684;28;20023;-73
2023/10/14 03:28:52;;;;;;;;;;;;;;;18.54;72.99;99403.06;4219589;28;19963;-73
2023/10/14 03:30:56;;;;;;;;;;;;;;;18.55;73.18;99410.16;4219328;28;20014;-73
2023/10/14 03:32:58;;;;;;;;;;;;;;;18.53;73.10;99398.69;4219913;28;20010;-72
2023/10/14 03:35:11;;;;;;;;;;;;;;;18.54;73.19;99403.06;4221298;27;20294;-73
2023/10/14 03:37:21;;;;;;;;;;;;;;;18.54;72.96;99400.34;4219943;28;19991;-72
2023/10/14 03:39:37;;;;;;;;;;;;;;;18.54;73.25;99399.50;4220480;28;20027;-73
2023/10/14 03:41:42;;;;;;;;;;;;;;;18.55;73.19;99406.63;4218169;28;20030;-72
2023/10/14 03:43:44;;;;;;;;;;;;;;;18.53;72.77;99393.22;4220012;28;20024;-73
2023/10/14 03:45:48;;;;;;;;;;;;;;;18.53;73.10;99386.94;4218945;28;20018;-72
2023/10/14 03:47:52;;;;;;;;;;;;;;;18.54;73.00;99385.81;4220834;28;20026;-72
2023/10/14 03:49:56;;;;;;;;;;;;;;;18.54;73.17;99380.34;4220545;28;20437;-72
2023/10/14 03:51:58;;;;;;;;;;;;;;;18.55;73.30;99380.09;4220195;28;20031;-73
2023/10/14 03:54:07;;;;;;;;;;;;;;;18.57;73.18;99384.47;4219854;28;20018;-73
2023/10/14 03:56:10;;;;;;;;;;;;;;;18.55;73.04;99373.81;4220077;28;19928;-73
2023/10/14 03:58:12;;;;;;;;;;;;;;;18.54;72.72;99367.53;4219679;28;20027;-72
2023/10/14 04:00:25;;;;;;;;;;;;;;;18.57;72.80;99373.53;4219146;28;20019;-73
2023/10/14 04:02:27;;;;;;;;;;;;;;;18.57;72.72;99382.56;4220397;28;20054;-73
2023/10/14 04:04:29;;;;;;;;;;;;;;;18.56;72.44;99370.00;4220217;28;20015;-72
2023/10/14 04:06:34;;;;;;;;;;;;;;;18.55;72.42;99358.22;4219984;28;20010;-73
2023/10/14 04:08:46;;;;;;;;;;;;;;;18.54;71.93;99358.47;4218067;28;19959;-73
2023/10/14 04:10:54;;;;;;;;;;;;;;;18.54;71.67;99359.31;4220029;28;20376;-72
2023/10/14 04:13:04;;;;;;;;;;;;;;;18.55;71.10;99352.75;4219502;28;20374;-72
2023/10/14 04:15:23;;;;;;;;;;;;;;;18.55;70.50;99358.22;4218799;28;20010;-72
2023/10/14 04:17:30;;;;;;;;;;;;;;;18.54;70.54;99345.66;4219836;28;19924;-72
2023/10/14 04:19:44;;;;;;;;;;;;;;;18.55;70.25;99335.53;4218554;28;20462;-72
2023/10/14 04:21:53;;;;;;;;;;;;;;;18.56;70.78;99334.44;4219520;28;20031;-72
2023/10/14 04:24:07;;;;;;;;;;;;;;;18.57;69.75;99344.28;4220505;28;20039;-73
2023/10/14 04:26:12;;;;;;;;;;;;;;;18.59;70.23;99330.34;4220599;28;20342;-71
2023/10/14 04:28:30;;;;;;;;;;;;;;;18.59;70.49;99333.94;4218643;28;20019;-73
2023/10/14 04:30:35;;;;;;;;;;;;;;;18.60;70.37;99340.22;4219681;28;20030;-72
2023/10/14 04:32:42;;;;;;;;;;;;;;;18.61;69.81;99331.75;4218263;28;20019;-73
2023/10/14 04:34:46;;;;;;;;;;;;;;;18.62;69.67;99341.59;4218617;28;20177;-73
2023/10/14 04:36:54;;;;;;;;;;;;;;;18.63;69.77;99328.75;4218880;28;20019;-73
2023/10/14 04:39:05;;;;;;;;;;;;;;;18.63;69.48;99337.75;4220158;28;20386;-73
2023/10/14 04:41:13;;;;;;;;;;;;;;;18.64;69.35;99344.06;4219530;28;20015;-72
2023/10/14 04:43:37;;;;;;;;;;;;;;;18.64;68.56;99344.06;4220014;28;20047;-73
2023/10/14 04:45:45;;;;;;;;;;;;;;;18.63;68.46;99329.56;4219753;28;20030;-73
2023/10/14 04:47:48;;;;;;;;;;;;;;;18.63;68.57;99328.75;4219914;28;20023;-73
2023/10/14 04:49:51;;;;;;;;;;;;;;;18.63;68.82;99331.47;4219493;28;20374;-71
2023/10/14 04:51:58;;;;;;;;;;;;;;;18.63;68.61;99326.81;4220076;28;20401;-71
2023/10/14 04:54:01;;;;;;;;;;;;;;;18.64;68.79;99323.00;4219949;28;20019;-71
2023/10/14 04:56:04;;;;;;;;;;;;;;;18.65;68.22;99335.59;4220047;28;20011;-72
2023/10/14 04:58:15;;;;;;;;;;;;;;;18.64;67.37;99316.72;4219667;28;20022;-71
2023/10/14 05:00:32;;;;;;;;;;;;;;;18.66;67.63;99333.69;4216783;28;19924;-72
2023/10/14 05:02:37;;;;;;;;;;;;;;;18.65;66.75;99329.28;4220163;28;20034;-72
2023/10/14 05:04:41;;;;;;;;;;;;;;;18.67;67.43;99335.34;4219590;28;20050;-72
2023/10/14 05:06:47;;;;;;;;;;;;;;;18.66;67.20;99345.44;4219820;28;20588;-72
2023/10/14 05:08:54;;;;;;;;;;;;;;;18.66;67.38;99370.03;4221414;28;20026;-72
2023/10/14 05:11:00;;;;;;;;;;;;;;;18.68;68.64;99394.38;4222596;28;20019;-71
2023/10/14 05:13:09;;;;;;;;;;;;;;;18.69;70.96;99439.81;4222232;28;20028;-70
2023/10/14 05:15:22;;;;;;;;;;;;;;;18.69;75.04;99439.81;4217830;28;19958;-72
2023/10/14 05:17:32;;;;;;;;;;;;;;;18.67;76.07;99434.59;4220917;28;20011;-72
2023/10/14 05:19:41;;;;;;;;;;;;;;;18.66;77.00;99445.78;4222005;28;20376;-72
2023/10/14 05:21:43;;;;;;;;;;;;;;;18.66;77.20;99456.75;4204461;28;19927;-72
2023/10/14 05:23:46;;;;;;;;;;;;;;;18.64;77.82;99454.25;4222602;28;20382;-72
2023/10/14 05:25:49;;;;;;;;;;;;;;;18.62;78.49;99470.13;4222189;28;20007;-72
2023/10/14 05:28:04;;;;;;;;;;;;;;;18.59;79.36;99487.03;4222538;28;20030;-72
2023/10/14 05:30:15;;;;;;;;;;;;;;;18.59;79.64;99505.34;4236077;27;20019;-73
2023/10/14 05:32:18;;;;;;;;;;;;;;;18.54;80.59;99504.22;4221272;28;20484;-74
2023/10/14 05:34:42;;;;;;;;;;;;;;;18.53;80.73;99512.69;4222081;28;20023;-72
2023/10/14 05:37:01;;;;;;;;;;;;;;;18.50;80.92;99524.97;4221044;28;19937;-73
2023/10/14 05:39:10;;;;;;;;;;;;;;;18.49;81.19;99520.56;4219593;28;19962;-72
2023/10/14 05:41:12;;;;;;;;;;;;;;;18.48;81.79;99532.59;4219788;28;19924;-73
2023/10/14 05:43:19;;;;;;;;;;;;;;;18.43;83.04;99526.25;4221283;28;19932;-73
2023/10/14 05:45:21;;;;;;;;;;;;;;;18.41;83.44;99526.50;4220478;28;20346;-73
2023/10/14 05:47:27;;;;;;;;;;;;;;;18.40;82.88;99538.53;4222397;28;20023;-71
2023/10/14 05:49:31;;;;;;;;;;;;;;;18.40;83.19;99548.63;4221949;28;20018;-72
2023/10/14 05:51:33;;;;;;;;;;;;;;;18.37;83.58;99528.94;4219667;28;20019;-73
2023/10/14 05:53:35;;;;;;;;;;;;;;;18.38;83.67;99535.22;4221310;28;20020;-72
2023/10/14 05:55:39;;;;;;;;;;;;;;;18.32;83.73;99545.31;4221129;28;20022;-72
2023/10/14 05:57:41;;;;;;;;;;;;;;;18.34;83.68;99551.31;4221780;28;20477;-72
2023/10/14 05:59:43;;;;;;;;;;;;;;;18.32;84.36;99578.09;4220108;28;20019;-73
2023/10/14 06:01:46;;;;;;;;;;;;;;;18.33;83.45;99603.50;4219897;28;20019;-73
2023/10/14 06:03:51;;;;;;;;;;;;;;;18.32;83.40;99640.13;4218829;28;20447;-73
2023/10/14 06:05:55;;;;;;;;;;;;;;;18.28;84.62;99666.31;4221653;28;20016;-72
2023/10/14 06:08:05;;;;;;;;;;;;;;;18.25;83.92;99692.25;4220725;28;20022;-72
2023/10/14 06:10:10;;;;;;;;;;;;;;;18.16;80.51;99694.56;4219295;28;20487;-73
2023/10/14 06:12:12;;;;;;;;;;;;;;;18.10;77.32;99722.09;4221083;28;19924;-72
2023/10/14 06:14:14;;;;;;;;;;;;;;;18.04;74.65;99728.56;4220895;28;20003;-71
2023/10/14 06:16:16;;;;;;;;;;;;;;;17.96;73.22;99738.84;4221028;28;20030;-71
2023/10/14 06:18:18;;;;;;;;;;;;;;;17.92;72.99;99736.88;4220515;28;20034;-72
2023/10/14 06:20:21;;;;;;;;;;;;;;;17.83;71.71;99755.53;4220874;28;20015;-71
2023/10/14 06:22:24;;;;;;;;;;;;;;;17.76;71.96;99760.38;4220518;28;20015;-72
2023/10/14 06:24:26;;;;;;;;;;;;;;;17.60;71.76;99768.28;4221392;28;20485;-72
2023/10/14 06:26:28;;;;;;;;;;;;;;;17.61;72.07;99775.41;4220402;28;20022;-72
2023/10/14 06:28:30;;;;;;;;;;;;;;;17.58;72.26;99783.25;4221065;28;20023;-72
2023/10/14 06:30:33;;;;;;;;;;;;;;;17.55;72.78;99800.94;4219790;28;20026;-72
2023/10/14 06:32:35;;;;;;;;;;;;;;;17.51;72.55;99812.59;4220057;28;20027;-71
2023/10/14 06:34:39;;;;;;;;;;;;;;;17.42;72.88;99817.66;4221046;28;20533;-72
2023/10/14 06:36:47;;;;;;;;;;;;;;;17.39;72.82;99827.16;4220402;28;20387;-72
2023/10/14 06:38:51;;;;;;;;;;;;;;;17.26;72.52;99828.28;4220135;28;20038;-71
2023/10/14 06:40:53;;;;;;;;;;;;;;;17.22;73.22;99831.72;4220481;28;20021;-72
2023/10/14 06:42:54;;;;;;;;;;;;;;;17.13;73.39;99850.38;4220349;28;20014;-71
2023/10/14 06:44:59;;;;;;;;;;;;;;;17.02;73.61;99849.38;4217492;28;19932;-72
2023/10/14 06:47:02;;;;;;;;;;;;;;;17.05;74.17;99856.22;4220731;28;20183;-72
2023/10/14 06:49:13;;;;;;;;;;;;;;;17.05;74.12;99856.22;4219611;28;20330;-72
2023/10/14 06:51:15;;;;;;;;;;;;;;;16.97;73.43;99848.41;4218623;28;20011;-73
2023/10/14 06:53:18;;;;;;;;;;;;;;;16.99;73.80;99885.31;4219286;28;20497;-72
2023/10/14 06:55:22;;;;;;;;;;;;;;;16.97;73.89;99872.97;4220307;28;20078;-71
2023/10/14 06:57:26;;;;;;;;;;;;;;;16.86;73.45;99872.72;4218797;28;20539;-72
2023/10/14 06:59:28;;;;;;;;;;;;;;;16.84;74.15;99877.59;4219950;28;20066;-73
2023/10/14 07:01:30;;;;;;;;;;;;;;;16.81;74.62;99888.16;4217456;28;20489;-72
2023/10/14 07:03:33;;;;;;;;;;;;;;;16.83;74.78;99905.09;4217962;28;20389;-72
2023/10/14 07:05:43;;;;;;;;;;;;;;;16.82;74.40;99926.09;4219164;28;19931;-72
2023/10/14 07:07:46;;;;;;;;;;;;;;;16.71;74.13;99922.28;4218548;28;20027;-72
2023/10/14 07:09:49;;;;;;;;;;;;;;;16.64;74.80;99918.84;4219811;28;20031;-72
2023/10/14 07:11:52;;;;;;;;;;;;;;;16.59;74.50;99902.38;4219768;28;19927;-72
2023/10/14 07:13:57;;;;;;;;;;;;;;;16.60;74.68;99908.66;4219658;28;20051;-72
2023/10/14 07:16:04;;;;;;;;;;;;;;;16.53;74.98;99906.88;4219067;28;20030;-72
2023/10/14 07:18:08;;;;;;;;;;;;;;;16.51;74.92;99921.81;4220000;28;20023;-73
2023/10/14 07:20:12;;;;;;;;;;;;;;;16.52;75.14;99907.97;4218966;28;19959;-72
2023/10/14 07:22:20;;;;;;;;;;;;;;;16.49;75.17;99922.06;4219807;28;20018;-72
2023/10/14 07:24:23;;;;;;;;;;;;;;;16.48;75.01;99912.22;4217051;28;20011;-72
2023/10/14 07:26:29;;;;;;;;;;;;;;;16.46;74.87;99932.63;4219014;28;20382;-72
2023/10/14 07:28:35;;;;;;;;;;;;;;;16.44;74.98;99926.53;4215591;28;20531;-71
2023/10/14 07:30:37;;;;;;;;;;;;;;;16.38;75.06;99912.81;4217145;28;20002;-72
2023/10/14 07:32:38;;;;;;;;;;;;;;;16.42;74.93;99948.59;4215989;28;19959;-70
2023/10/14 07:34:40;;;;;;;;;;;;;;;16.35;74.44;99951.41;4218760;28;19931;-72
2023/10/14 07:36:42;;;;;;;;;;;;;;;16.31;74.86;99946.69;4219905;28;20018;-72
2023/10/14 07:38:45;;;;;;;;;;;;;;;16.28;75.44;99945.25;4219590;28;20031;-72
2023/10/14 07:40:49;;;;;;;;;;;;;;;16.29;75.30;99946.91;4218271;28;20031;-72
2023/10/14 07:42:52;;;;;;;;;;;;;;;16.33;75.24;99953.56;4219394;28;20015;-71
2023/10/14 07:44:59;;;;;;;;;;;;;;;16.31;75.09;99958.41;4219292;28;20449;-72
2023/10/14 07:47:05;;;;;;;;;;;;;;;16.33;75.26;99966.34;4218467;28;19923;-73
2023/10/14 07:49:07;;;;;;;;;;;;;;;16.33;75.15;99971.78;4218099;28;19927;-72
2023/10/14 07:51:09;;;;;;;;;;;;;;;16.31;75.04;99963.03;4219048;28;20031;-71
2023/10/14 07:53:12;;;;;;;;;;;;;;;16.30;75.20;99964.94;4219571;28;20019;-72
2023/10/14 07:55:20;;;;;;;;;;;;;;;16.27;75.39;99970.84;4219783;28;20019;-71
2023/10/14 07:57:24;;;;;;;;;;;;;;;16.24;75.44;99984.09;4217417;28;20027;-71
2023/10/14 07:59:26;;;;;;;;;;;;;;;16.17;75.69;99998.63;4220007;28;20050;-71
2023/10/14 08:01:30;;;;;;;;;;;;;;;16.18;76.08;99997.56;4219193;28;20031;-71
2023/10/14 08:03:32;;;;;;;;;;;;;;;16.15;76.17;100024.47;4219794;28;20026;-71
2023/10/14 08:05:37;;;;;;;;;;;;;;;16.17;76.00;100023.16;4219133;28;20011;-71
2023/10/14 08:07:46;;;;;;;;;;;;;;;16.15;75.92;100029.91;4219923;28;20638;-71
2023/10/14 08:09:48;;;;;;;;;;;;;;;16.13;75.36;100030.16;4219421;28;20026;-71
2023/10/14 08:11:51;;;;;;;;;;;;;;;16.17;75.58;100025.06;4218960;28;20377;-71
2023/10/14 08:13:54;;;;;;;;;;;;;;;16.17;75.37;100020.41;4219466;28;20023;-72
2023/10/14 08:15:59;;;;;;;;;;;;;;;16.19;75.73;100018.31;4219362;28;20019;-71
2023/10/14 08:18:04;;;;;;;;;;;;;;;16.26;76.03;100018.22;4219431;28;20024;-72
2023/10/14 08:20:13;;;;;;;;;;;;;;;16.32;75.88;100017.28;4219640;28;20035;-73
2023/10/14 08:22:16;;;;;;;;;;;;;;;16.39;75.41;100028.94;4219721;28;20019;-72
2023/10/14 08:24:21;;;;;;;;;;;;;;;16.49;75.82;100032.97;4218075;28;20023;-72
2023/10/14 08:26:26;;;;;;;;;;;;;;;16.55;75.44;100041.06;4218213;28;20471;-72
2023/10/14 08:28:28;;;;;;;;;;;;;;;16.62;74.55;100043.66;4218737;28;19936;-72
2023/10/14 08:30:32;;;;;;;;;;;;;;;16.65;73.70;100048.66;4218302;28;20050;-73
2023/10/14 08:32:37;;;;;;;;;;;;;;;16.74;72.96;100054.59;4219539;28;20018;-73
2023/10/14 08:34:40;;;;;;;;;;;;;;;16.83;71.93;100049.63;4218687;28;20018;-73
2023/10/14 08:36:43;;;;;;;;;;;;;;;16.91;71.61;100050.16;4219944;28;20052;-72
2023/10/14 08:38:47;;;;;;;;;;;;;;;17.04;72.81;100056.44;4216824;28;20023;-71
2023/10/14 08:40:54;;;;;;;;;;;;;;;17.14;71.83;100064.84;4216759;28;20038;-73
2023/10/14 08:42:56;;;;;;;;;;;;;;;17.24;71.79;100061.53;4218076;28;20031;-73
2023/10/14 08:44:58;;;;;;;;;;;;;;;17.35;70.97;100068.06;4220708;28;20052;-71
2023/10/14 08:47:01;;;;;;;;;;;;;;;17.43;70.80;100054.88;4220905;28;20342;-72
2023/10/14 08:49:03;;;;;;;;;;;;;;;17.53;70.08;100067.09;4219464;28;20035;-73
2023/10/14 08:51:09;;;;;;;;;;;;;;;17.62;69.87;100071.13;4222438;28;20465;-71
2023/10/14 08:53:12;;;;;;;;;;;;;;;17.69;69.27;100081.91;4221726;28;20101;-71
2023/10/14 08:55:14;;;;;;;;;;;;;;;17.78;69.16;100085.94;4222931;28;20347;-73
2023/10/14 08:57:16;;;;;;;;;;;;;;;17.80;66.83;100092.78;4222709;28;20366;-74
2023/10/14 08:59:21;;;;;;;;;;;;;;;17.80;64.57;100101.00;4222713;28;20344;-72
2023/10/14 09:01:23;;;;;;;;;;;;;;;17.79;64.10;100093.88;4221449;28;20028;-71
2023/10/14 09:03:26;;;;;;;;;;;;;;;17.86;64.43;100107.41;4222476;28;20006;-72
2023/10/14 09:05:30;;;;;;;;;;;;;;;17.91;64.60;100117.63;4222136;28;20010;-72
2023/10/14 09:07:38;;;;;;;;;;;;;;;17.92;64.10;100117.41;4222458;28;20011;-73
2023/10/14 09:09:44;;;;;;;;;;;;;;;17.92;63.00;100122.88;4222179;28;20022;-71
2023/10/14 09:11:51;;;;;;;;;;;;;;;17.97;63.88;100128.44;4221894;28;20015;-73
2023/10/14 09:14:02;;;;;;;;;;;;;;;18.04;65.20;100130.19;4222490;28;20471;-73
2023/10/14 09:16:10;;;;;;;;;;;;;;;18.09;65.85;100139.34;4221876;28;19932;-71
2023/10/14 09:18:16;;;;;;;;;;;;;;;18.15;66.39;100148.47;4236956;27;20441;-71
2023/10/14 09:20:31;;;;;;;;;;;;;;;18.18;65.03;100142.50;4220771;28;20067;-72
2023/10/14 09:22:33;;;;;;;;;;;;;;;18.24;66.25;100143.44;4221804;28;20441;-72
2023/10/14 09:24:37;;;;;;;;;;;;;;;18.28;65.52;100145.47;4222831;28;20023;-73
2023/10/14 09:26:43;;;;;;;;;;;;;;;18.31;64.19;100144.97;4221658;28;20027;-72
2023/10/14 09:28:45;;;;;;;;;;;;;;;18.36;63.80;100163.38;4220661;28;20011;-73
2023/10/14 09:30:50;;;;;;;;;;;;;;;18.40;63.68;100148.16;4221337;28;20362;-73
2023/10/14 09:32:52;;;;;;;;;;;;;;;18.41;61.81;100149.00;4221173;28;20019;-73
2023/10/14 09:34:55;;;;;;;;;;;;;;;18.44;60.97;100162.19;4221194;28;20018;-72
2023/10/14 09:36:57;;;;;;;;;;;;;;;18.45;60.02;100172.03;4221132;28;20014;-73
2023/10/14 09:39:00;;;;;;;;;;;;;;;18.44;58.87;100170.38;4221831;28;19934;-72
2023/10/14 09:41:04;;;;;;;;;;;;;;;18.49;61.24;100176.75;4220936;28;20031;-71
2023/10/14 09:43:10;;;;;;;;;;;;;;;18.48;59.43;100171.53;4221736;28;20440;-71
2023/10/14 09:45:14;;;;;;;;;;;;;;;18.50;60.31;100180.34;4222650;28;20027;-71
2023/10/14 09:47:19;;;;;;;;;;;;;;;18.53;60.94;100186.16;4220365;28;20023;-72
2023/10/14 09:49:22;;;;;;;;;;;;;;;18.55;62.72;100184.00;4220258;28;20022;-71
2023/10/14 09:51:24;;;;;;;;;;;;;;;18.58;62.38;100187.34;4222202;28;19924;-72
2023/10/14 09:53:27;;;;;;;;;;;;;;;18.61;62.29;100184.13;4221364;28;20002;-70
2023/10/14 09:55:28;;;;;;;;;;;;;;;18.64;62.56;100194.56;4218965;28;20019;-72
2023/10/14 09:57:32;;;;;;;;;;;;;;;18.68;63.27;100196.56;4221525;28;20113;-72
2023/10/14 09:59:34;;;;;;;;;;;;;;;18.71;62.31;100206.16;4221544;28;20018;-72
2023/10/14 10:01:49;;;;;;;;;;;;;;;18.76;61.28;100208.19;4221300;28;20006;-69
2023/10/14 10:04:06;;;;;;;;;;;;;;;18.81;59.38;100202.78;4220000;28;19925;-70
2023/10/14 10:06:11;;;;;;;;;;;;;;;18.83;59.73;100195.19;4221124;28;20360;-71
2023/10/14 10:08:22;;;;;;;;;;;;;;;18.88;56.74;100209.81;4221388;28;20026;-73
2023/10/14 10:10:25;;;;;;;;;;;;;;;18.95;60.26;100206.94;4221323;28;20011;-72
2023/10/14 10:12:32;;;;;;;;;;;;;;;19.00;60.07;100223.44;4219343;28;20027;-73
2023/10/14 10:14:37;;;;;;;;;;;;;;;19.04;59.24;100212.84;4221209;28;20486;-72
2023/10/14 10:16:41;;;;;;;;;;;;;;;19.07;57.69;100215.94;4220798;28;20409;-72
2023/10/14 10:18:50;;;;;;;;;;;;;;;19.11;57.52;100224.47;4220643;28;20034;-73
2023/10/14 10:20:56;;;;;;;;;;;;;;;19.14;57.59;100221.25;4220969;28;20449;-72
2023/10/14 10:22:59;;;;;;;;;;;;;;;19.14;56.11;100232.19;4220191;28;20026;-74
2023/10/14 10:25:00;;;;;;;;;;;;;;;19.17;57.00;100237.16;4202022;28;20007;-73
2023/10/14 10:27:10;;;;;;;;;;;;;;;19.16;55.07;100231.94;4221182;28;20035;-72
2023/10/14 10:29:22;;;;;;;;;;;;;;;19.17;53.45;100244.53;4219972;28;20434;-73
2023/10/14 10:31:24;;;;;;;;;;;;;;;19.18;54.14;100238.00;4219129;28;20046;-72
2023/10/14 10:33:40;;;;;;;;;;;;;;;19.21;56.70;100242.97;4219052;28;20389;-74
2023/10/14 10:35:55;;;;;;;;;;;;;;;19.22;55.15;100242.72;4220260;28;20022;-74
2023/10/14 10:38:00;;;;;;;;;;;;;;;19.25;55.73;100246.88;4220122;28;20019;-74
2023/10/14 10:40:05;;;;;;;;;;;;;;;19.26;55.35;100232.09;4221046;27;20015;-71
2023/10/14 10:42:07;;;;;;;;;;;;;;;19.29;55.03;100260.91;4220320;28;20030;-72
2023/10/14 10:44:11;;;;;;;;;;;;;;;19.33;56.57;100249.22;4220396;28;20011;-73
2023/10/14 10:46:28;;;;;;;;;;;;;;;19.39;58.79;100259.19;4220956;28;20010;-71
2023/10/14 10:48:31;;;;;;;;;;;;;;;19.42;58.59;100260.59;4219947;28;20022;-73